New Preston, Connecticut
Current Conditions -  °F | °C
As of 9:55 PM on Wednesday 22 Oct 2014 (Local Time) from KOXC Reporting Station
Overcast Overcast  
Wind Chill: 40°   Ceiling: 1600
Heat Index: 48°   Visibility: 10mi
Dew Point: 41°   Wind: 30mph
Humidity: 76%   Direction: 20°NNE
Pressure: 29.74"   Gusts: 38mph
Location:  41.6879°N, 73.3378°W
Report Text: KOXC 230155Z 02026G33KT 10SM BKN016 OVC024 09/05 A2974 RMK AO1 LTG DSNT NE P0012
Loading
Personal Weather Stations






























Interactive Weather Map
Tropical Storm Tracking
New forecast layout! Learn more

10-Day Weather Forecast

Advertisements
Track Severe Weather on mobile